sensor_id;sensor_type;location;lat;lon;timestamp;P1;durP1;ratioP1;P2;durP2;ratioP2
54191;SDS011;40101;53.002;6.488;2022-08-19T00:01:16;3.15;;;2.80;;
54191;SDS011;40101;53.002;6.488;2022-08-19T00:03:42;6.20;;;3.25;;
54191;SDS011;40101;53.002;6.488;2022-08-19T00:06:08;6.50;;;3.45;;
54191;SDS011;40101;53.002;6.488;2022-08-19T00:08:35;5.70;;;3.08;;
54191;SDS011;40101;53.002;6.488;2022-08-19T00:11:00;7.65;;;3.65;;
54191;SDS011;40101;53.002;6.488;2022-08-19T00:13:26;5.40;;;3.45;;
54191;SDS011;40101;53.002;6.488;2022-08-19T00:15:54;6.93;;;4.63;;
54191;SDS011;40101;53.002;6.488;2022-08-19T00:18:20;5.45;;;3.92;;
54191;SDS011;40101;53.002;6.488;2022-08-19T00:20:46;6.75;;;4.03;;
54191;SDS011;40101;53.002;6.488;2022-08-19T00:23:12;5.22;;;3.80;;
54191;SDS011;40101;53.002;6.488;2022-08-19T00:25:38;5.32;;;3.42;;
54191;SDS011;40101;53.002;6.488;2022-08-19T00:28:04;4.95;;;3.78;;
54191;SDS011;40101;53.002;6.488;2022-08-19T00:30:29;6.47;;;4.28;;
54191;SDS011;40101;53.002;6.488;2022-08-19T00:32:56;4.13;;;3.65;;
54191;SDS011;40101;53.002;6.488;2022-08-19T00:35:22;11.18;;;4.30;;
54191;SDS011;40101;53.002;6.488;2022-08-19T00:37:49;7.28;;;4.28;;
54191;SDS011;40101;53.002;6.488;2022-08-19T00:40:16;6.95;;;3.95;;
54191;SDS011;40101;53.002;6.488;2022-08-19T00:42:44;5.35;;;3.22;;
54191;SDS011;40101;53.002;6.488;2022-08-19T00:45:15;5.90;;;3.33;;
54191;SDS011;40101;53.002;6.488;2022-08-19T00:47:48;5.55;;;3.40;;
54191;SDS011;40101;53.002;6.488;2022-08-19T00:50:15;7.30;;;3.38;;
54191;SDS011;40101;53.002;6.488;2022-08-19T00:52:43;5.82;;;3.05;;
54191;SDS011;40101;53.002;6.488;2022-08-19T00:55:14;3.50;;;2.83;;
54191;SDS011;40101;53.002;6.488;2022-08-19T00:57:47;4.50;;;3.95;;
54191;SDS011;40101;53.002;6.488;2022-08-19T01:00:19;5.45;;;3.47;;
54191;SDS011;40101;53.002;6.488;2022-08-19T01:02:46;6.78;;;3.75;;
54191;SDS011;40101;53.002;6.488;2022-08-19T01:05:13;4.32;;;2.85;;
54191;SDS011;40101;53.002;6.488;2022-08-19T01:07:44;3.42;;;3.10;;
54191;SDS011;40101;53.002;6.488;2022-08-19T01:10:14;7.18;;;5.28;;
54191;SDS011;40101;53.002;6.488;2022-08-19T01:12:43;5.32;;;4.25;;
54191;SDS011;40101;53.002;6.488;2022-08-19T01:15:11;6.18;;;4.68;;
54191;SDS011;40101;53.002;6.488;2022-08-19T01:17:39;6.88;;;4.88;;
54191;SDS011;40101;53.002;6.488;2022-08-19T01:20:07;8.27;;;5.45;;
54191;SDS011;40101;53.002;6.488;2022-08-19T01:22:43;4.15;;;3.75;;
54191;SDS011;40101;53.002;6.488;2022-08-19T01:25:15;8.88;;;3.83;;
54191;SDS011;40101;53.002;6.488;2022-08-19T01:27:45;6.78;;;3.50;;
54191;SDS011;40101;53.002;6.488;2022-08-19T01:30:13;15.00;;;5.00;;
54191;SDS011;40101;53.002;6.488;2022-08-19T01:32:48;6.22;;;4.13;;
54191;SDS011;40101;53.002;6.488;2022-08-19T01:35:15;5.97;;;4.20;;
54191;SDS011;40101;53.002;6.488;2022-08-19T01:37:53;5.47;;;4.15;;
54191;SDS011;40101;53.002;6.488;2022-08-19T01:40:22;8.00;;;5.43;;
54191;SDS011;40101;53.002;6.488;2022-08-19T01:42:50;7.40;;;4.90;;
54191;SDS011;40101;53.002;6.488;2022-08-19T01:45:18;3.88;;;3.47;;
54191;SDS011;40101;53.002;6.488;2022-08-19T01:47:47;3.85;;;2.83;;
54191;SDS011;40101;53.002;6.488;2022-08-19T01:50:13;4.97;;;3.20;;
54191;SDS011;40101;53.002;6.488;2022-08-19T01:52:40;6.07;;;4.90;;
54191;SDS011;40101;53.002;6.488;2022-08-19T01:55:08;3.72;;;3.30;;
54191;SDS011;40101;53.002;6.488;2022-08-19T01:57:37;3.58;;;3.28;;
54191;SDS011;40101;53.002;6.488;2022-08-19T02:00:08;3.70;;;3.40;;
54191;SDS011;40101;53.002;6.488;2022-08-19T02:02:39;7.40;;;6.28;;
54191;SDS011;40101;53.002;6.488;2022-08-19T02:05:04;10.80;;;6.68;;
54191;SDS011;40101;53.002;6.488;2022-08-19T02:07:33;5.93;;;4.75;;
54191;SDS011;40101;53.002;6.488;2022-08-19T02:10:00;5.57;;;4.43;;
54191;SDS011;40101;53.002;6.488;2022-08-19T02:12:34;7.13;;;5.28;;
54191;SDS011;40101;53.002;6.488;2022-08-19T02:15:00;6.18;;;4.88;;
54191;SDS011;40101;53.002;6.488;2022-08-19T02:17:27;7.03;;;6.20;;
54191;SDS011;40101;53.002;6.488;2022-08-19T02:19:54;9.05;;;5.57;;
54191;SDS011;40101;53.002;6.488;2022-08-19T02:22:21;7.50;;;5.55;;
54191;SDS011;40101;53.002;6.488;2022-08-19T02:24:48;11.35;;;7.90;;
54191;SDS011;40101;53.002;6.488;2022-08-19T02:27:14;10.85;;;8.32;;
54191;SDS011;40101;53.002;6.488;2022-08-19T02:29:40;18.83;;;10.35;;
54191;SDS011;40101;53.002;6.488;2022-08-19T02:32:06;12.18;;;9.15;;
54191;SDS011;40101;53.002;6.488;2022-08-19T02:34:32;7.20;;;5.20;;
54191;SDS011;40101;53.002;6.488;2022-08-19T02:36:58;17.30;;;10.43;;
54191;SDS011;40101;53.002;6.488;2022-08-19T02:39:24;11.57;;;9.00;;
54191;SDS011;40101;53.002;6.488;2022-08-19T02:41:51;15.13;;;9.73;;
54191;SDS011;40101;53.002;6.488;2022-08-19T02:44:17;12.88;;;8.95;;
54191;SDS011;40101;53.002;6.488;2022-08-19T02:46:44;13.32;;;8.88;;
54191;SDS011;40101;53.002;6.488;2022-08-19T02:49:11;12.25;;;9.60;;
54191;SDS011;40101;53.002;6.488;2022-08-19T02:51:38;11.85;;;8.85;;
54191;SDS011;40101;53.002;6.488;2022-08-19T02:54:06;15.77;;;9.10;;
54191;SDS011;40101;53.002;6.488;2022-08-19T02:56:34;12.07;;;9.95;;
54191;SDS011;40101;53.002;6.488;2022-08-19T02:59:00;14.57;;;9.65;;
54191;SDS011;40101;53.002;6.488;2022-08-19T03:01:28;13.70;;;9.85;;
54191;SDS011;40101;53.002;6.488;2022-08-19T03:03:59;11.98;;;7.45;;
54191;SDS011;40101;53.002;6.488;2022-08-19T03:06:27;9.63;;;7.05;;
54191;SDS011;40101;53.002;6.488;2022-08-19T03:08:53;7.30;;;6.60;;
54191;SDS011;40101;53.002;6.488;2022-08-19T03:11:24;10.07;;;5.10;;
54191;SDS011;40101;53.002;6.488;2022-08-19T03:13:52;6.30;;;5.22;;
54191;SDS011;40101;53.002;6.488;2022-08-19T03:16:19;9.40;;;6.47;;
54191;SDS011;40101;53.002;6.488;2022-08-19T03:18:50;11.30;;;6.32;;
54191;SDS011;40101;53.002;6.488;2022-08-19T03:21:16;12.68;;;8.07;;
54191;SDS011;40101;53.002;6.488;2022-08-19T03:23:47;9.73;;;7.22;;
54191;SDS011;40101;53.002;6.488;2022-08-19T03:26:12;10.38;;;7.38;;
54191;SDS011;40101;53.002;6.488;2022-08-19T03:28:40;9.98;;;6.35;;
54191;SDS011;40101;53.002;6.488;2022-08-19T03:31:10;7.07;;;5.85;;
54191;SDS011;40101;53.002;6.488;2022-08-19T03:33:39;8.45;;;6.25;;
54191;SDS011;40101;53.002;6.488;2022-08-19T03:36:06;7.20;;;6.15;;
54191;SDS011;40101;53.002;6.488;2022-08-19T03:38:35;11.55;;;7.75;;
54191;SDS011;40101;53.002;6.488;2022-08-19T03:41:07;9.68;;;6.30;;
54191;SDS011;40101;53.002;6.488;2022-08-19T03:43:35;10.15;;;8.43;;
54191;SDS011;40101;53.002;6.488;2022-08-19T03:46:03;13.30;;;9.07;;
54191;SDS011;40101;53.002;6.488;2022-08-19T03:48:30;10.07;;;8.23;;
54191;SDS011;40101;53.002;6.488;2022-08-19T03:50:57;11.32;;;9.02;;
54191;SDS011;40101;53.002;6.488;2022-08-19T03:53:24;9.70;;;7.05;;
54191;SDS011;40101;53.002;6.488;2022-08-19T03:55:51;8.15;;;5.38;;
54191;SDS011;40101;53.002;6.488;2022-08-19T03:58:18;7.95;;;6.07;;
54191;SDS011;40101;53.002;6.488;2022-08-19T04:00:45;5.10;;;4.35;;
54191;SDS011;40101;53.002;6.488;2022-08-19T04:03:10;6.63;;;3.35;;
54191;SDS011;40101;53.002;6.488;2022-08-19T04:05:36;5.22;;;3.10;;
54191;SDS011;40101;53.002;6.488;2022-08-19T04:08:03;3.53;;;3.22;;
54191;SDS011;40101;53.002;6.488;2022-08-19T04:10:30;5.45;;;3.75;;
54191;SDS011;40101;53.002;6.488;2022-08-19T04:13:00;7.10;;;5.88;;
54191;SDS011;40101;53.002;6.488;2022-08-19T04:15:25;9.90;;;8.25;;
54191;SDS011;40101;53.002;6.488;2022-08-19T04:17:53;9.82;;;7.95;;
54191;SDS011;40101;53.002;6.488;2022-08-19T04:20:19;9.13;;;8.10;;
54191;SDS011;40101;53.002;6.488;2022-08-19T04:22:45;8.80;;;7.45;;
54191;SDS011;40101;53.002;6.488;2022-08-19T04:25:11;9.82;;;7.57;;
54191;SDS011;40101;53.002;6.488;2022-08-19T04:27:36;9.65;;;7.53;;
54191;SDS011;40101;53.002;6.488;2022-08-19T04:30:02;13.73;;;10.30;;
54191;SDS011;40101;53.002;6.488;2022-08-19T04:32:28;12.18;;;9.45;;
54191;SDS011;40101;53.002;6.488;2022-08-19T04:34:56;19.95;;;7.45;;
54191;SDS011;40101;53.002;6.488;2022-08-19T04:37:24;24.98;;;7.43;;
54191;SDS011;40101;53.002;6.488;2022-08-19T04:39:51;13.95;;;9.25;;
54191;SDS011;40101;53.002;6.488;2022-08-19T04:42:36;17.38;;;11.63;;
54191;SDS011;40101;53.002;6.488;2022-08-19T04:45:05;12.63;;;9.10;;
54191;SDS011;40101;53.002;6.488;2022-08-19T04:47:39;8.75;;;6.63;;
54191;SDS011;40101;53.002;6.488;2022-08-19T04:50:06;8.43;;;6.50;;
54191;SDS011;40101;53.002;6.488;2022-08-19T04:52:33;8.43;;;6.95;;
54191;SDS011;40101;53.002;6.488;2022-08-19T04:54:58;11.93;;;7.00;;
54191;SDS011;40101;53.002;6.488;2022-08-19T04:57:24;15.57;;;6.43;;
54191;SDS011;40101;53.002;6.488;2022-08-19T04:59:54;11.98;;;7.90;;
54191;SDS011;40101;53.002;6.488;2022-08-19T05:02:20;17.70;;;8.18;;
54191;SDS011;40101;53.002;6.488;2022-08-19T05:04:51;18.08;;;8.00;;
54191;SDS011;40101;53.002;6.488;2022-08-19T05:07:22;17.52;;;10.27;;
54191;SDS011;40101;53.002;6.488;2022-08-19T05:09:48;14.63;;;10.93;;
54191;SDS011;40101;53.002;6.488;2022-08-19T05:12:13;9.82;;;7.47;;
54191;SDS011;40101;53.002;6.488;2022-08-19T05:14:39;8.95;;;6.35;;
54191;SDS011;40101;53.002;6.488;2022-08-19T05:17:05;6.10;;;5.50;;
54191;SDS011;40101;53.002;6.488;2022-08-19T05:19:30;6.20;;;5.60;;
54191;SDS011;40101;53.002;6.488;2022-08-19T05:22:15;7.68;;;5.82;;
54191;SDS011;40101;53.002;6.488;2022-08-19T05:25:06;9.15;;;6.03;;
54191;SDS011;40101;53.002;6.488;2022-08-19T05:27:37;7.35;;;6.65;;
54191;SDS011;40101;53.002;6.488;2022-08-19T05:30:03;6.43;;;5.82;;
54191;SDS011;40101;53.002;6.488;2022-08-19T05:32:30;7.05;;;5.97;;
54191;SDS011;40101;53.002;6.488;2022-08-19T05:34:56;9.43;;;6.45;;
54191;SDS011;40101;53.002;6.488;2022-08-19T05:37:22;8.25;;;6.57;;
54191;SDS011;40101;53.002;6.488;2022-08-19T05:39:48;9.27;;;6.85;;
54191;SDS011;40101;53.002;6.488;2022-08-19T05:42:14;11.05;;;8.35;;
54191;SDS011;40101;53.002;6.488;2022-08-19T05:44:41;10.10;;;7.20;;
54191;SDS011;40101;53.002;6.488;2022-08-19T05:47:09;10.52;;;8.05;;
54191;SDS011;40101;53.002;6.488;2022-08-19T05:49:36;11.70;;;9.18;;
54191;SDS011;40101;53.002;6.488;2022-08-19T05:52:03;11.38;;;8.95;;
54191;SDS011;40101;53.002;6.488;2022-08-19T05:54:33;10.13;;;7.97;;
54191;SDS011;40101;53.002;6.488;2022-08-19T05:57:01;12.77;;;9.18;;
54191;SDS011;40101;53.002;6.488;2022-08-19T05:59:27;10.15;;;9.15;;
54191;SDS011;40101;53.002;6.488;2022-08-19T06:01:53;10.55;;;9.13;;
54191;SDS011;40101;53.002;6.488;2022-08-19T06:04:20;12.10;;;9.32;;
54191;SDS011;40101;53.002;6.488;2022-08-19T06:06:47;10.85;;;9.43;;
54191;SDS011;40101;53.002;6.488;2022-08-19T06:09:17;11.07;;;9.82;;
54191;SDS011;40101;53.002;6.488;2022-08-19T06:11:44;10.90;;;9.23;;
54191;SDS011;40101;53.002;6.488;2022-08-19T06:14:15;14.80;;;9.85;;
54191;SDS011;40101;53.002;6.488;2022-08-19T06:16:43;11.18;;;9.98;;
54191;SDS011;40101;53.002;6.488;2022-08-19T06:19:12;10.07;;;9.00;;
54191;SDS011;40101;53.002;6.488;2022-08-19T06:21:41;11.52;;;9.88;;
54191;SDS011;40101;53.002;6.488;2022-08-19T06:24:09;10.05;;;9.00;;
54191;SDS011;40101;53.002;6.488;2022-08-19T06:26:38;10.55;;;9.07;;
54191;SDS011;40101;53.002;6.488;2022-08-19T06:29:05;10.75;;;9.65;;
54191;SDS011;40101;53.002;6.488;2022-08-19T06:31:33;10.90;;;8.88;;
54191;SDS011;40101;53.002;6.488;2022-08-19T06:34:00;14.13;;;9.70;;
54191;SDS011;40101;53.002;6.488;2022-08-19T06:36:38;11.90;;;9.95;;
54191;SDS011;40101;53.002;6.488;2022-08-19T06:39:09;11.52;;;9.57;;
54191;SDS011;40101;53.002;6.488;2022-08-19T06:41:37;12.35;;;9.45;;
54191;SDS011;40101;53.002;6.488;2022-08-19T06:44:05;11.55;;;10.35;;
54191;SDS011;40101;53.002;6.488;2022-08-19T06:46:31;13.93;;;10.25;;
54191;SDS011;40101;53.002;6.488;2022-08-19T06:48:58;11.18;;;9.63;;
54191;SDS011;40101;53.002;6.488;2022-08-19T06:51:25;12.20;;;10.90;;
54191;SDS011;40101;53.002;6.488;2022-08-19T06:53:52;16.23;;;11.10;;
54191;SDS011;40101;53.002;6.488;2022-08-19T06:56:20;13.55;;;10.02;;
54191;SDS011;40101;53.002;6.488;2022-08-19T06:58:50;13.27;;;10.30;;
54191;SDS011;40101;53.002;6.488;2022-08-19T07:01:18;10.90;;;9.50;;
54191;SDS011;40101;53.002;6.488;2022-08-19T07:03:44;15.75;;;10.23;;
54191;SDS011;40101;53.002;6.488;2022-08-19T07:06:13;14.55;;;11.10;;
54191;SDS011;40101;53.002;6.488;2022-08-19T07:08:42;12.13;;;10.90;;
54191;SDS011;40101;53.002;6.488;2022-08-19T07:11:10;13.07;;;10.27;;
54191;SDS011;40101;53.002;6.488;2022-08-19T07:13:39;12.32;;;10.88;;
54191;SDS011;40101;53.002;6.488;2022-08-19T07:16:05;11.32;;;10.00;;
54191;SDS011;40101;53.002;6.488;2022-08-19T07:18:32;11.95;;;9.88;;
54191;SDS011;40101;53.002;6.488;2022-08-19T07:21:02;14.30;;;8.65;;
54191;SDS011;40101;53.002;6.488;2022-08-19T07:23:40;12.55;;;9.45;;
54191;SDS011;40101;53.002;6.488;2022-08-19T07:26:08;13.02;;;9.05;;
54191;SDS011;40101;53.002;6.488;2022-08-19T07:28:36;11.20;;;8.45;;
54191;SDS011;40101;53.002;6.488;2022-08-19T07:31:07;8.35;;;7.60;;
54191;SDS011;40101;53.002;6.488;2022-08-19T07:33:33;8.73;;;7.93;;
54191;SDS011;40101;53.002;6.488;2022-08-19T07:36:02;12.63;;;7.78;;
54191;SDS011;40101;53.002;6.488;2022-08-19T07:38:30;8.25;;;7.25;;
54191;SDS011;40101;53.002;6.488;2022-08-19T07:40:56;8.30;;;7.47;;
54191;SDS011;40101;53.002;6.488;2022-08-19T07:43:22;8.18;;;6.82;;
54191;SDS011;40101;53.002;6.488;2022-08-19T07:45:51;6.65;;;5.93;;
54191;SDS011;40101;53.002;6.488;2022-08-19T07:48:21;6.65;;;6.03;;
54191;SDS011;40101;53.002;6.488;2022-08-19T07:50:58;7.65;;;6.15;;
54191;SDS011;40101;53.002;6.488;2022-08-19T07:53:29;7.63;;;4.97;;
54191;SDS011;40101;53.002;6.488;2022-08-19T07:55:59;6.25;;;5.10;;
54191;SDS011;40101;53.002;6.488;2022-08-19T07:58:29;10.43;;;5.43;;
54191;SDS011;40101;53.002;6.488;2022-08-19T08:00:56;5.55;;;4.07;;
54191;SDS011;40101;53.002;6.488;2022-08-19T08:03:23;6.22;;;4.65;;
54191;SDS011;40101;53.002;6.488;2022-08-19T08:06:08;5.97;;;4.45;;
54191;SDS011;40101;53.002;6.488;2022-08-19T08:08:53;5.35;;;4.00;;
54191;SDS011;40101;53.002;6.488;2022-08-19T08:11:38;6.15;;;4.50;;
54191;SDS011;40101;53.002;6.488;2022-08-19T08:14:14;4.75;;;3.65;;
54191;SDS011;40101;53.002;6.488;2022-08-19T08:16:43;4.68;;;3.50;;
54191;SDS011;40101;53.002;6.488;2022-08-19T08:19:10;5.68;;;4.30;;
54191;SDS011;40101;53.002;6.488;2022-08-19T08:21:39;5.95;;;4.10;;
54191;SDS011;40101;53.002;6.488;2022-08-19T08:24:06;6.05;;;5.00;;
54191;SDS011;40101;53.002;6.488;2022-08-19T08:26:32;6.07;;;5.47;;
54191;SDS011;40101;53.002;6.488;2022-08-19T08:28:57;5.00;;;4.50;;
54191;SDS011;40101;53.002;6.488;2022-08-19T08:31:23;6.32;;;5.72;;
54191;SDS011;40101;53.002;6.488;2022-08-19T08:33:49;6.13;;;5.32;;
54191;SDS011;40101;53.002;6.488;2022-08-19T08:36:15;6.57;;;4.72;;
54191;SDS011;40101;53.002;6.488;2022-08-19T08:38:42;8.13;;;5.20;;
54191;SDS011;40101;53.002;6.488;2022-08-19T08:41:16;5.35;;;4.85;;
54191;SDS011;40101;53.002;6.488;2022-08-19T08:43:45;4.70;;;4.30;;
54191;SDS011;40101;53.002;6.488;2022-08-19T08:46:36;4.72;;;4.30;;
54191;SDS011;40101;53.002;6.488;2022-08-19T08:51:46;5.10;;;4.25;;
54191;SDS011;40101;53.002;6.488;2022-08-19T08:54:18;4.72;;;4.32;;
54191;SDS011;40101;53.002;6.488;2022-08-19T08:56:46;4.25;;;3.88;;
54191;SDS011;40101;53.002;6.488;2022-08-19T08:59:21;5.22;;;4.72;;
54191;SDS011;40101;53.002;6.488;2022-08-19T09:01:49;3.95;;;3.63;;
54191;SDS011;40101;53.002;6.488;2022-08-19T09:04:15;3.75;;;3.28;;
54191;SDS011;40101;53.002;6.488;2022-08-19T09:09:31;5.18;;;4.68;;
54191;SDS011;40101;53.002;6.488;2022-08-19T09:15:06;5.03;;;4.35;;
54191;SDS011;40101;53.002;6.488;2022-08-19T09:17:34;4.35;;;3.92;;
54191;SDS011;40101;53.002;6.488;2022-08-19T09:20:02;5.03;;;4.45;;
54191;SDS011;40101;53.002;6.488;2022-08-19T09:22:33;6.50;;;5.45;;
54191;SDS011;40101;53.002;6.488;2022-08-19T09:25:00;5.40;;;4.78;;
54191;SDS011;40101;53.002;6.488;2022-08-19T09:27:28;6.13;;;5.00;;
54191;SDS011;40101;53.002;6.488;2022-08-19T09:29:54;5.53;;;4.95;;
54191;SDS011;40101;53.002;6.488;2022-08-19T09:32:20;7.57;;;5.20;;
54191;SDS011;40101;53.002;6.488;2022-08-19T09:34:47;5.95;;;4.88;;
54191;SDS011;40101;53.002;6.488;2022-08-19T09:37:13;5.50;;;5.00;;
54191;SDS011;40101;53.002;6.488;2022-08-19T09:39:39;7.45;;;6.75;;
54191;SDS011;40101;53.002;6.488;2022-08-19T09:42:06;9.20;;;5.38;;
54191;SDS011;40101;53.002;6.488;2022-08-19T09:44:39;5.45;;;4.95;;
54191;SDS011;40101;53.002;6.488;2022-08-19T09:47:06;5.78;;;5.28;;
54191;SDS011;40101;53.002;6.488;2022-08-19T09:49:32;6.38;;;5.15;;
54191;SDS011;40101;53.002;6.488;2022-08-19T09:52:01;7.43;;;4.70;;
54191;SDS011;40101;53.002;6.488;2022-08-19T09:54:27;4.80;;;4.40;;
54191;SDS011;40101;53.002;6.488;2022-08-19T09:56:55;5.65;;;4.93;;
54191;SDS011;40101;53.002;6.488;2022-08-19T09:59:22;5.15;;;4.65;;
54191;SDS011;40101;53.002;6.488;2022-08-19T10:01:48;5.40;;;4.90;;
54191;SDS011;40101;53.002;6.488;2022-08-19T10:04:16;4.68;;;4.22;;
54191;SDS011;40101;53.002;6.488;2022-08-19T10:06:42;6.25;;;4.95;;
54191;SDS011;40101;53.002;6.488;2022-08-19T10:09:08;5.43;;;4.55;;
54191;SDS011;40101;53.002;6.488;2022-08-19T10:11:36;5.13;;;4.53;;
54191;SDS011;40101;53.002;6.488;2022-08-19T10:14:05;6.00;;;3.83;;
54191;SDS011;40101;53.002;6.488;2022-08-19T10:16:31;4.15;;;3.47;;
54191;SDS011;40101;53.002;6.488;2022-08-19T10:18:57;6.93;;;4.88;;
54191;SDS011;40101;53.002;6.488;2022-08-19T10:21:25;4.90;;;4.50;;
54191;SDS011;40101;53.002;6.488;2022-08-19T10:23:56;5.18;;;4.40;;
54191;SDS011;40101;53.002;6.488;2022-08-19T10:26:26;4.03;;;3.63;;
54191;SDS011;40101;53.002;6.488;2022-08-19T10:28:52;4.78;;;4.28;;
54191;SDS011;40101;53.002;6.488;2022-08-19T10:31:20;4.57;;;4.18;;
54191;SDS011;40101;53.002;6.488;2022-08-19T10:33:48;4.25;;;3.85;;
54191;SDS011;40101;53.002;6.488;2022-08-19T10:36:18;8.52;;;5.97;;
54191;SDS011;40101;53.002;6.488;2022-08-19T10:38:49;5.70;;;5.18;;
54191;SDS011;40101;53.002;6.488;2022-08-19T10:41:19;7.97;;;5.40;;
54191;SDS011;40101;53.002;6.488;2022-08-19T10:44:01;5.63;;;4.70;;
54191;SDS011;40101;53.002;6.488;2022-08-19T10:46:28;5.53;;;4.03;;
54191;SDS011;40101;53.002;6.488;2022-08-19T10:48:57;5.45;;;4.07;;
54191;SDS011;40101;53.002;6.488;2022-08-19T10:51:27;4.97;;;4.45;;
54191;SDS011;40101;53.002;6.488;2022-08-19T10:54:20;6.50;;;5.53;;
54191;SDS011;40101;53.002;6.488;2022-08-19T10:56:45;6.18;;;5.65;;
54191;SDS011;40101;53.002;6.488;2022-08-19T10:59:21;6.28;;;5.53;;
54191;SDS011;40101;53.002;6.488;2022-08-19T11:01:50;6.78;;;5.22;;
54191;SDS011;40101;53.002;6.488;2022-08-19T11:04:16;6.82;;;6.13;;
54191;SDS011;40101;53.002;6.488;2022-08-19T11:06:44;6.15;;;5.60;;
54191;SDS011;40101;53.002;6.488;2022-08-19T11:09:13;6.10;;;5.32;;
54191;SDS011;40101;53.002;6.488;2022-08-19T11:11:43;7.82;;;5.53;;
54191;SDS011;40101;53.002;6.488;2022-08-19T11:14:11;6.70;;;5.13;;
54191;SDS011;40101;53.002;6.488;2022-08-19T11:16:39;9.68;;;5.22;;
54191;SDS011;40101;53.002;6.488;2022-08-19T11:19:08;6.35;;;5.75;;
54191;SDS011;40101;53.002;6.488;2022-08-19T11:21:39;10.18;;;8.20;;
54191;SDS011;40101;53.002;6.488;2022-08-19T11:24:11;8.18;;;7.45;;
54191;SDS011;40101;53.002;6.488;2022-08-19T11:29:08;8.25;;;7.03;;
54191;SDS011;40101;53.002;6.488;2022-08-19T11:31:43;6.63;;;5.93;;
54191;SDS011;40101;53.002;6.488;2022-08-19T11:34:15;6.72;;;6.13;;
54191;SDS011;40101;53.002;6.488;2022-08-19T11:36:46;6.88;;;6.22;;
54191;SDS011;40101;53.002;6.488;2022-08-19T11:39:15;9.95;;;7.22;;
54191;SDS011;40101;53.002;6.488;2022-08-19T11:41:45;8.10;;;6.13;;
54191;SDS011;40101;53.002;6.488;2022-08-19T11:44:11;7.82;;;5.55;;
54191;SDS011;40101;53.002;6.488;2022-08-19T11:46:39;6.95;;;5.85;;
54191;SDS011;40101;53.002;6.488;2022-08-19T11:49:06;6.95;;;5.28;;
54191;SDS011;40101;53.002;6.488;2022-08-19T11:51:35;6.78;;;6.18;;
54191;SDS011;40101;53.002;6.488;2022-08-19T11:54:02;10.80;;;6.47;;
54191;SDS011;40101;53.002;6.488;2022-08-19T11:56:30;9.60;;;5.47;;
54191;SDS011;40101;53.002;6.488;2022-08-19T11:58:56;8.40;;;6.50;;
54191;SDS011;40101;53.002;6.488;2022-08-19T12:01:23;7.55;;;5.80;;
54191;SDS011;40101;53.002;6.488;2022-08-19T12:03:51;6.90;;;4.68;;
54191;SDS011;40101;53.002;6.488;2022-08-19T12:06:19;7.13;;;4.95;;
54191;SDS011;40101;53.002;6.488;2022-08-19T12:08:50;3.70;;;3.20;;
54191;SDS011;40101;53.002;6.488;2022-08-19T12:11:16;3.25;;;2.47;;
54191;SDS011;40101;53.002;6.488;2022-08-19T12:13:42;4.18;;;2.47;;
54191;SDS011;40101;53.002;6.488;2022-08-19T12:16:13;3.17;;;1.85;;
54191;SDS011;40101;53.002;6.488;2022-08-19T12:18:48;3.80;;;2.40;;
54191;SDS011;40101;53.002;6.488;2022-08-19T12:21:18;3.40;;;2.70;;
54191;SDS011;40101;53.002;6.488;2022-08-19T12:23:48;3.33;;;2.20;;
54191;SDS011;40101;53.002;6.488;2022-08-19T12:26:15;2.47;;;2.25;;
54191;SDS011;40101;53.002;6.488;2022-08-19T12:28:41;3.28;;;2.40;;
54191;SDS011;40101;53.002;6.488;2022-08-19T12:31:07;3.15;;;2.58;;
54191;SDS011;40101;53.002;6.488;2022-08-19T12:33:37;5.55;;;3.45;;
54191;SDS011;40101;53.002;6.488;2022-08-19T12:36:04;6.55;;;3.88;;
54191;SDS011;40101;53.002;6.488;2022-08-19T12:38:32;5.22;;;3.15;;
54191;SDS011;40101;53.002;6.488;2022-08-19T12:40:59;3.78;;;3.15;;
54191;SDS011;40101;53.002;6.488;2022-08-19T12:43:25;5.88;;;3.30;;
54191;SDS011;40101;53.002;6.488;2022-08-19T12:45:51;4.65;;;2.85;;
54191;SDS011;40101;53.002;6.488;2022-08-19T12:48:17;5.70;;;4.00;;
54191;SDS011;40101;53.002;6.488;2022-08-19T12:50:44;4.80;;;3.00;;
54191;SDS011;40101;53.002;6.488;2022-08-19T12:53:11;5.57;;;3.83;;
54191;SDS011;40101;53.002;6.488;2022-08-19T12:55:38;4.13;;;2.95;;
54191;SDS011;40101;53.002;6.488;2022-08-19T12:58:04;2.88;;;2.33;;
54191;SDS011;40101;53.002;6.488;2022-08-19T13:00:29;3.20;;;2.65;;
54191;SDS011;40101;53.002;6.488;2022-08-19T13:02:57;6.68;;;3.55;;
54191;SDS011;40101;53.002;6.488;2022-08-19T13:05:27;4.85;;;3.45;;
54191;SDS011;40101;53.002;6.488;2022-08-19T13:07:56;3.17;;;2.85;;
54191;SDS011;40101;53.002;6.488;2022-08-19T13:10:29;6.20;;;4.22;;
54191;SDS011;40101;53.002;6.488;2022-08-19T13:13:00;6.35;;;4.07;;
54191;SDS011;40101;53.002;6.488;2022-08-19T13:15:27;6.82;;;3.95;;
54191;SDS011;40101;53.002;6.488;2022-08-19T13:17:58;7.65;;;4.80;;
54191;SDS011;40101;53.002;6.488;2022-08-19T13:20:24;8.13;;;5.93;;
54191;SDS011;40101;53.002;6.488;2022-08-19T13:22:50;8.20;;;5.25;;
54191;SDS011;40101;53.002;6.488;2022-08-19T13:25:16;6.53;;;4.85;;
54191;SDS011;40101;53.002;6.488;2022-08-19T13:27:44;6.70;;;4.28;;
54191;SDS011;40101;53.002;6.488;2022-08-19T13:30:12;8.93;;;6.47;;
54191;SDS011;40101;53.002;6.488;2022-08-19T13:32:57;8.27;;;7.40;;
54191;SDS011;40101;53.002;6.488;2022-08-19T13:36:18;11.25;;;7.75;;
54191;SDS011;40101;53.002;6.488;2022-08-19T13:38:26;10.32;;;8.13;;
54191;SDS011;40101;53.002;6.488;2022-08-19T13:40:53;12.40;;;8.20;;
54191;SDS011;40101;53.002;6.488;2022-08-19T13:43:20;13.57;;;8.45;;
54191;SDS011;40101;53.002;6.488;2022-08-19T13:45:48;13.20;;;8.65;;
54191;SDS011;40101;53.002;6.488;2022-08-19T13:48:20;13.30;;;8.77;;
54191;SDS011;40101;53.002;6.488;2022-08-19T13:50:46;16.70;;;8.57;;
54191;SDS011;40101;53.002;6.488;2022-08-19T13:53:13;16.75;;;10.18;;
54191;SDS011;40101;53.002;6.488;2022-08-19T13:55:40;15.77;;;10.80;;
54191;SDS011;40101;53.002;6.488;2022-08-19T13:58:08;11.68;;;9.18;;
54191;SDS011;40101;53.002;6.488;2022-08-19T14:00:37;17.52;;;10.65;;
54191;SDS011;40101;53.002;6.488;2022-08-19T14:03:07;11.20;;;10.00;;
54191;SDS011;40101;53.002;6.488;2022-08-19T14:05:33;15.55;;;10.50;;
54191;SDS011;40101;53.002;6.488;2022-08-19T14:07:59;16.17;;;9.00;;
54191;SDS011;40101;53.002;6.488;2022-08-19T14:10:25;11.82;;;8.38;;
54191;SDS011;40101;53.002;6.488;2022-08-19T14:12:54;14.88;;;8.48;;
54191;SDS011;40101;53.002;6.488;2022-08-19T14:15:23;10.15;;;8.00;;
54191;SDS011;40101;53.002;6.488;2022-08-19T14:17:49;10.52;;;7.47;;
54191;SDS011;40101;53.002;6.488;2022-08-19T14:20:15;10.27;;;7.53;;
54191;SDS011;40101;53.002;6.488;2022-08-19T14:22:42;10.95;;;8.70;;
54191;SDS011;40101;53.002;6.488;2022-08-19T14:25:10;14.13;;;7.82;;
54191;SDS011;40101;53.002;6.488;2022-08-19T14:27:38;7.68;;;6.93;;
54191;SDS011;40101;53.002;6.488;2022-08-19T14:30:06;10.65;;;7.88;;
54191;SDS011;40101;53.002;6.488;2022-08-19T14:32:35;15.93;;;13.93;;
54191;SDS011;40101;53.002;6.488;2022-08-19T14:35:01;35.22;;;30.83;;
54191;SDS011;40101;53.002;6.488;2022-08-19T14:37:28;27.92;;;22.75;;
54191;SDS011;40101;53.002;6.488;2022-08-19T14:39:54;14.52;;;10.35;;
54191;SDS011;40101;53.002;6.488;2022-08-19T14:42:19;10.77;;;8.65;;
54191;SDS011;40101;53.002;6.488;2022-08-19T14:44:45;26.23;;;22.20;;
54191;SDS011;40101;53.002;6.488;2022-08-19T14:47:11;35.05;;;21.92;;
54191;SDS011;40101;53.002;6.488;2022-08-19T14:49:36;56.50;;;35.35;;
54191;SDS011;40101;53.002;6.488;2022-08-19T14:52:04;19.75;;;12.35;;
54191;SDS011;40101;53.002;6.488;2022-08-19T14:54:30;24.67;;;17.35;;
54191;SDS011;40101;53.002;6.488;2022-08-19T14:56:55;13.57;;;9.63;;
54191;SDS011;40101;53.002;6.488;2022-08-19T14:59:21;6.60;;;5.55;;
54191;SDS011;40101;53.002;6.488;2022-08-19T15:01:48;12.88;;;9.88;;